Cartwright, North Dakota
Current Conditions -  °F | °C
As of 7:55 AM on Saturday 25 Oct 2014 (Local Time) from KSDY Reporting Station
Clear Clear  
Wind Chill: 37°   Ceiling: Unl
Heat Index: 37°   Visibility: 10mi
Dew Point: 30°   Wind: 0mph
Humidity: 75%   Direction: NA
Pressure: 30.14"   Gusts: NA
Location:  47.85°N, 103.93°W
Report Text: KSDY 251255Z AUTO 00000KT 10SM CLR 03/M01 A3014 RMK AO1
Loading
Personal Weather Stations






























Interactive Weather Map
Tropical Storm Tracking
New forecast layout! Learn more

10-Day Weather Forecast

Advertisements
Track Severe Weather on mobile